Terminal Aerodrome Forecast
Issued by NWS

Home | Current Version | Previous Version | Text Only | Print | Product List | Glossary On
Versions: 1 2 3 4 5 6 7 8 9 10 11 12 13 14 15 16 17 18 19 20 21 22 23 24 25 26 27 28 29 30 31 32 33 34 35 36 37 38 39 40 41 42 43 44
000
FTUS43 KGRR 181741
TAFJXN
TAF
KJXN 181741Z 1818/1918 31006KT P6SM SCT015 OVC020
     FM190300 07006KT 2SM -SN OVC015
     FM190600 07009KT 1SM -SN BR OVC007
     FM191400 05014KT 2SM -SN OVC015
     FM191600 05014G22KT 1SM -SN OVC012=

USA.gov is the U.S. government's official web portal to all federal, state and local government web resources and services.